Aviation Digital Data Service (ADDS)

Output produced by METARs form (2319 UTC 15 July 2018)
found at http://www.aviationweather.gov/adds/metars/
 
KIPT 152254Z 17004KT 10SM SCT046 29/22 A2994 RMK AO2 SLP134 T02940222
KIPT 152154Z 24008KT 10SM FEW046 SCT050 BKN080 31/21 A2994 RMK AO2 LTG DSNT NE AND E AND SW SLP135 T03060206
KIPT 152054Z 15005KT 10SM FEW120 30/22 A2994 RMK AO2 LTG DSNT E SLP134 T03000217 56017
KIPT 151954Z 15005KT 10SM CLR 28/21 A2995 RMK AO2 LTG DSNT NE AND NW SLP139 T02830211
KIPT 151854Z 16003KT 10SM CLR 29/22 A2997 RMK AO2 SLP144 T02940217
KIPT 151754Z 12005KT 10SM FEW060 28/22 A2999 RMK AO2 SLP151 60007 T02830217 10283 20211 58012
KIPT 151654Z 15004KT 10SM FEW085 27/21 A3001 RMK AO2 SLP157 T02670211
KIPT 151554Z 12005KT 10SM SCT010 24/21 A3002 RMK AO2 SLP161 T02440211
KIPT 151454Z 12004KT 10SM SCT010 BKN040 24/21 A3003 RMK AO2 SLP163 60007 T02390206 50004
KIPT 151354Z VRB04KT 10SM BKN040 22/21 A3003 RMK AO2 RAE10 SLP165 P0000 T02220206
KIPT 151254Z 32003KT 8SM -RA FEW080 BKN100 21/20 A3002 RMK AO2 LTG DSNT SE-SW RAE1159B14 TSE53 SLP160 P0007 T02110200
KIPT 151244Z 30003KT 2SM -TSRA BR SCT090 BKN110 21/20 A3002 RMK AO2 LTG DSNT SE-SW RAE1159B14 TS S MOV E P0006 T02110200
KIPT 151230Z 23007KT 10SM -TSRA FEW050 SCT065 BKN090 21/20 A3002 RMK AO2 LTG DSNT E-SW RAE1159B14 TS S MOV E P0005 T02110200
KIPT 151221Z 26005KT 2SM -TSRA BR FEW027 BKN055 OVC120 21/19 A3003 RMK AO2 LTG DSNT ALQDS RAE1159B14 TS S MOV E P0004 T02110194
KIPT 151201Z COR 12004KT 10SM TS FEW018 OVC055 22/19 A3003 RMK AO2 TS S MOV E LTG DSNT ALQDS RAE1159 P0000 T02170194
KIPT 151154Z 22003KT 2SM -TSRA BR SCT018 OVC055 22/19 A3003 RMK AO2 LTG DSNT ALQDS RAE04B29 TSB08 SLP165 TS N MOV SE P0038 60041 70041 T02170194 10233 20211 53011
KIPT 151140Z VRB03KT 1 1/4SM +TSRA BR FEW022 BKN050 OVC060 22/20 A3003 RMK AO2 LTG DSNT ALQDS RAE04B29 TSB08 TS N MOV SE P0003 T02220200
KIPT 151114Z 00000KT 10SM TS FEW029 BKN037 OVC055 22/20 A3003 RMK AO2 LTG DSNT ALQDS RAE04 TSB08 TS N MOV SE P0000 T02220200
KIPT 151054Z 12003KT 10SM VCTS -RA FEW023 OVC055 22/20 A3001 RMK AO2 LTG DSNT ALQDS RAB02E12B43 SLP160 P0003 T02220200
KIPT 151028Z 33003KT 10SM VCTS BKN060 BKN085 22/19 A3002 RMK AO2 LTG DSNT NW-E RAB02E12 P0000 T02220194
KIPT 150954Z AUTO 00000KT 10SM BKN060 BKN080 23/19 A3000 RMK AO2 LTG DSNT NW-NE SLP153 T02280194
KIPT 150854Z AUTO 00000KT 10SM BKN060 23/19 A3000 RMK AO2 LTG DSNT N SLP153 T02280194 56009
KIPT 150754Z AUTO 00000KT 10SM BKN075 23/20 A3001 RMK AO2 LTG DSNT N SLP157 T02280200
KIPT 150654Z AUTO 05003KT 10SM CLR 23/19 A3001 RMK AO2 SLP157 T02280194
KIPT 150554Z AUTO 00000KT 10SM FEW110 23/20 A3003 RMK AO2 RAB08E29 SLP162 P0000 60000 T02330200 10294 20233 58003
KIPT 150454Z AUTO 00000KT 10SM BKN100 24/19 A3005 RMK AO2 SLP169 T02440189 403220178
KIPT 150354Z AUTO 09003KT 10SM FEW110 24/19 A3004 RMK AO2 SLP167 T02440189
KIPT 150254Z AUTO 10004KT 10SM CLR 25/19 A3004 RMK AO2 SLP166 T02500194 51014
KIPT 150154Z 04005KT 10SM SCT060 BKN080 27/19 A3003 RMK AO2 SLP164 T02720194
KIPT 150054Z 36003KT 10SM OVC085 28/20 A3001 RMK AO2 LTG DSNT N AND NE SLP156 T02830200
KIPT 142354Z 29004KT 10SM BKN080 29/19 A2999 RMK AO2 SLP152 T02890194 10322 20289 55008
KIPT 142254Z 22006KT 10SM OVC060 30/20 A2999 RMK AO2 SLP151 T03000200
KIPT 142154Z 21004KT 10SM CLR 31/19 A3001 RMK AO2 SLP156 T03110194
KIPT 142054Z 18006KT 10SM CLR 32/19 A3002 RMK AO2 SLP161 T03170189 58016
KIPT 141954Z 11005KT 10SM SCT065 32/19 A3004 RMK AO2 SLP166 T03220194
KIPT 141854Z VRB04KT 10SM SCT065 32/20 A3005 RMK AO2 SLP172 T03170200
KIPT 141754Z 00000KT 10SM CLR 31/19 A3007 RMK AO2 SLP177 T03060194 10311 20200 58017
KIPT 141654Z 10003KT 10SM CLR 29/19 A3009 RMK AO2 SLP184 T02940189
KIPT 141554Z 15003KT 10SM CLR 28/18 A3010 RMK AO2 SLP190 T02780183
KIPT 141454Z 00000KT 10SM CLR 26/17 A3012 RMK AO2 SLP195 T02560172 56008
KIPT 141354Z VRB03KT 10SM SCT090 24/17 A3012 RMK AO2 SLP196 T02440172
KIPT 141254Z 00000KT 10SM OVC090 21/17 A3013 RMK AO2 SLP200 T02110167
KIPT 141154Z 00000KT 10SM FEW060 BKN090 20/16 A3014 RMK AO2 SLP203 T02000161 10206 20178 51002